Time;durP1;ratioP1;P1;durP2;ratioP2;P2;SDS_P1;SDS_P2;PMS_P1;PMS_P2;Temp;Humidity;BMP_temperature;BMP_pressure;BME280_temperature;BME280_humidity;BME280_pressure;Samples;Min_cycle;Max_cycle;Signal;HPM_P1;HPM_P2
2023/09/27 00:01:50;;;;;;;11.88;10.05;;;;;;;-148.88;100.00;-17125.47;4991368;28;20022;-75
2023/09/27 00:04:16;;;;;;;11.80;10.35;;;;;;;-148.88;100.00;-17125.47;4992300;28;20022;-76
2023/09/27 00:06:41;;;;;;;11.82;10.30;;;;;;;-148.88;100.00;-17125.47;4992403;28;20026;-76
2023/09/27 00:09:08;;;;;;;11.45;9.98;;;;;;;-148.88;100.00;-17125.47;4991084;28;20089;-74
2023/09/27 00:11:34;;;;;;;10.73;9.73;;;;;;;-148.88;100.00;-17125.47;4990824;28;20081;-74
2023/09/27 00:14:00;;;;;;;11.23;9.60;;;;;;;-148.88;100.00;-17125.47;4992230;28;20057;-74
2023/09/27 00:16:25;;;;;;;12.25;10.20;;;;;;;-148.88;100.00;-17125.47;4992164;28;20025;-74
2023/09/27 00:18:51;;;;;;;11.00;9.88;;;;;;;-148.88;100.00;-17125.47;4992115;28;20022;-74
2023/09/27 00:21:17;;;;;;;11.25;10.05;;;;;;;-148.88;100.00;-17125.47;4992001;28;20026;-74
2023/09/27 00:23:42;;;;;;;14.63;9.70;;;;;;;-148.88;100.00;-17125.47;4992130;28;20045;-73
2023/09/27 00:26:08;;;;;;;10.98;9.75;;;;;;;-148.88;100.00;-17125.47;4991877;28;20026;-74
2023/09/27 00:28:33;;;;;;;10.30;9.20;;;;;;;-148.88;100.00;-17125.47;4992177;28;20035;-73
2023/09/27 00:30:59;;;;;;;10.48;9.35;;;;;;;-148.88;100.00;-17125.47;4990965;28;20054;-74
2023/09/27 00:33:24;;;;;;;11.18;8.82;;;;;;;-148.88;100.00;-17125.47;4990693;28;20030;-73
2023/09/27 00:35:50;;;;;;;10.13;9.18;;;;;;;-148.88;100.00;-17125.47;4992043;28;20048;-74
2023/09/27 00:38:15;;;;;;;11.02;9.52;;;;;;;-148.88;100.00;-17125.47;4990603;28;20113;-74
2023/09/27 00:40:47;;;;;;;10.63;9.43;;;;;;;-148.88;100.00;-17125.47;4992691;28;20031;-74
2023/09/27 00:43:32;;;;;;;10.55;9.45;;;;;;;-148.88;100.00;-17125.47;4992097;28;20113;-74
2023/09/27 00:46:05;;;;;;;10.45;9.35;;;;;;;-148.88;100.00;-17125.47;4992242;28;20023;-74
2023/09/27 00:48:31;;;;;;;10.05;8.77;;;;;;;-148.88;100.00;-17125.47;4990448;28;20058;-75
2023/09/27 00:50:57;;;;;;;11.23;8.80;;;;;;;-148.88;100.00;-17125.47;4991898;28;20030;-75
2023/09/27 00:53:26;;;;;;;11.18;8.88;;;;;;;-148.88;100.00;-17125.47;4994827;28;20113;-75
2023/09/27 00:55:52;;;;;;;9.75;8.30;;;;;;;-148.88;100.00;-17125.47;4995752;28;20030;-75
2023/09/27 00:58:19;;;;;;;11.60;8.70;;;;;;;-148.88;100.00;-17125.47;4995394;28;20040;-74
2023/09/27 01:00:52;;;;;;;9.52;8.23;;;;;;;-148.88;100.00;-17125.47;4995356;28;20065;-75
2023/09/27 01:03:18;;;;;;;10.40;8.40;;;;;;;-148.88;100.00;-17125.47;4995326;28;20352;-75
2023/09/27 01:05:45;;;;;;;10.30;8.75;;;;;;;-148.88;100.00;-17125.47;4993912;28;20380;-75
2023/09/27 01:08:11;;;;;;;10.45;8.07;;;;;;;-148.88;100.00;-17125.47;4995227;28;20057;-75
2023/09/27 01:10:37;;;;;;;11.48;8.43;;;;;;;-148.88;100.00;-17125.47;4995416;28;20057;-75
2023/09/27 01:13:03;;;;;;;8.68;7.45;;;;;;;-148.88;100.00;-17125.47;4995221;28;20026;-75
2023/09/27 01:15:29;;;;;;;8.25;7.35;;;;;;;-148.88;100.00;-17125.47;4995244;28;20061;-74
2023/09/27 01:17:59;;;;;;;8.70;7.80;;;;;;;-148.88;100.00;-17125.47;4995167;28;20049;-74
2023/09/27 01:20:27;;;;;;;8.23;7.43;;;;;;;-148.88;100.00;-17125.47;4993758;28;20034;-75
2023/09/27 01:23:00;;;;;;;9.60;7.90;;;;;;;-148.88;100.00;-17125.47;4995410;28;20079;-74
2023/09/27 01:25:36;;;;;;;9.47;8.40;;;;;;;-148.88;100.00;-17125.47;4995162;28;20578;-75
2023/09/27 01:28:07;;;;;;;9.63;8.60;;;;;;;-148.88;100.00;-17125.47;4994964;28;20106;-74
2023/09/27 01:30:33;;;;;;;10.18;8.63;;;;;;;-148.88;100.00;-17125.47;4993705;28;20117;-74
2023/09/27 01:33:10;;;;;;;10.43;9.10;;;;;;;-148.88;100.00;-17125.47;4993579;28;20487;-74
2023/09/27 01:35:36;;;;;;;9.82;8.82;;;;;;;-148.88;100.00;-17125.47;4993651;28;20056;-74
2023/09/27 01:38:03;;;;;;;10.63;9.52;;;;;;;-148.88;100.00;-17125.47;4994680;28;20049;-74
2023/09/27 01:40:30;;;;;;;10.98;9.82;;;;;;;-148.88;100.00;-17125.47;4994863;28;20613;-74
2023/09/27 01:43:03;;;;;;;10.60;9.15;;;;;;;-148.88;100.00;-17125.47;4994990;28;20030;-74
2023/09/27 01:45:30;;;;;;;10.65;9.45;;;;;;;-148.88;100.00;-17125.47;4994726;28;20033;-74
2023/09/27 01:47:56;;;;;;;10.45;9.35;;;;;;;-148.88;100.00;-17125.47;4994692;28;20117;-74
2023/09/27 01:50:25;;;;;;;10.00;9.07;;;;;;;-148.88;100.00;-17125.47;4993113;28;20160;-74
2023/09/27 01:52:55;;;;;;;10.38;8.70;;;;;;;-148.88;100.00;-17125.47;4993143;28;20030;-73
2023/09/27 01:55:21;;;;;;;13.10;10.57;;;;;;;-148.88;100.00;-17125.47;4994626;28;20105;-74
2023/09/27 01:57:47;;;;;;;11.45;10.25;;;;;;;-148.88;100.00;-17125.47;4993095;28;20022;-74
2023/09/27 02:00:15;;;;;;;11.48;10.27;;;;;;;-148.88;100.00;-17125.47;4994529;28;20037;-74
2023/09/27 02:02:49;;;;;;;14.70;11.45;;;;;;;-148.88;100.00;-17125.47;4994302;28;20363;-74
2023/09/27 02:05:15;;;;;;;12.57;11.27;;;;;;;-148.88;100.00;-17125.47;4993788;28;20033;-74
2023/09/27 02:07:41;;;;;;;12.27;11.07;;;;;;;-148.88;100.00;-17125.47;4994404;28;20015;-74
2023/09/27 02:10:10;;;;;;;13.77;12.05;;;;;;;-148.88;100.00;-17125.47;4994000;28;20125;-74
2023/09/27 02:12:37;;;;;;;14.52;11.80;;;;;;;-148.88;100.00;-17125.47;4993896;28;20019;-74
2023/09/27 02:15:07;;;;;;;12.85;11.52;;;;;;;-148.88;100.00;-17125.47;4993956;28;20030;-74
2023/09/27 02:17:32;;;;;;;14.10;12.20;;;;;;;-148.88;100.00;-17125.47;4993746;28;20014;-74
2023/09/27 02:19:58;;;;;;;14.20;12.80;;;;;;;-148.88;100.00;-17125.47;4992341;28;20081;-74
2023/09/27 02:22:23;;;;;;;12.75;11.52;;;;;;;-148.88;100.00;-17125.47;4993764;28;20026;-74
2023/09/27 02:24:49;;;;;;;12.57;10.93;;;;;;;-148.88;100.00;-17125.47;4993800;28;20018;-74
2023/09/27 02:27:15;;;;;;;14.55;11.70;;;;;;;-148.88;100.00;-17125.47;4993762;28;20097;-73
2023/09/27 02:29:43;;;;;;;13.23;11.82;;;;;;;-148.88;100.00;-17125.47;4992621;28;20211;-73
2023/09/27 02:32:09;;;;;;;13.10;11.20;;;;;;;-148.88;100.00;-17125.47;4993650;28;20029;-73
2023/09/27 02:34:35;;;;;;;13.02;11.45;;;;;;;-148.88;100.00;-17125.47;4993643;28;20022;-73
2023/09/27 02:37:01;;;;;;;11.55;10.35;;;;;;;-148.88;100.00;-17125.47;4993533;28;20033;-73
2023/09/27 02:39:28;;;;;;;13.77;11.32;;;;;;;-148.88;100.00;-17125.47;4993360;28;20026;-73
2023/09/27 02:41:53;;;;;;;15.13;12.13;;;;;;;-148.88;100.00;-17125.47;4993725;28;20557;-73
2023/09/27 02:44:18;;;;;;;12.57;11.27;;;;;;;-148.88;100.00;-17125.47;4993354;28;20026;-74
2023/09/27 02:46:44;;;;;;;12.88;11.48;;;;;;;-148.88;100.00;-17125.47;4993272;28;20041;-73
2023/09/27 02:49:09;;;;;;;13.30;11.02;;;;;;;-148.88;100.00;-17125.47;4993092;28;20034;-73
2023/09/27 02:51:36;;;;;;;14.65;11.20;;;;;;;-148.88;100.00;-17125.47;4993326;28;20029;-73
2023/09/27 02:54:01;;;;;;;12.55;10.95;;;;;;;-148.88;100.00;-17125.47;4993259;28;20491;-73
2023/09/27 02:56:27;;;;;;;12.23;11.02;;;;;;;-148.88;100.00;-17125.47;4993106;28;20027;-74
2023/09/27 02:58:52;;;;;;;14.35;12.35;;;;;;;-148.88;100.00;-17125.47;4992917;28;20034;-73
2023/09/27 03:01:18;;;;;;;14.50;11.90;;;;;;;-148.88;100.00;-17125.47;4991788;28;20096;-74
2023/09/27 03:03:43;;;;;;;13.98;12.57;;;;;;;-148.88;100.00;-17125.47;4993077;28;20030;-73
2023/09/27 03:06:15;;;;;;;14.07;12.68;;;;;;;-148.88;100.00;-17125.47;4993035;28;20026;-74
2023/09/27 03:08:43;;;;;;;14.00;12.60;;;;;;;-148.88;100.00;-17125.47;4992943;28;20129;-74
2023/09/27 03:11:09;;;;;;;15.32;12.95;;;;;;;-148.88;100.00;-17125.47;4993367;28;20444;-74
2023/09/27 03:13:36;;;;;;;15.48;13.25;;;;;;;-148.88;100.00;-17125.47;4993194;28;20026;-73
2023/09/27 03:16:02;;;;;;;14.68;13.07;;;;;;;-148.88;100.00;-17125.47;4993135;28;20073;-73
2023/09/27 03:18:28;;;;;;;14.40;12.90;;;;;;;-148.88;100.00;-17125.47;4993158;28;20026;-73
2023/09/27 03:20:53;;;;;;;15.40;13.20;;;;;;;-148.88;100.00;-17125.47;4992962;28;20096;-73
2023/09/27 03:23:19;;;;;;;14.63;13.13;;;;;;;-148.88;100.00;-17125.47;4991509;28;20030;-73
2023/09/27 03:25:46;;;;;;;13.93;12.45;;;;;;;-148.88;100.00;-17125.47;4992901;28;20026;-74
2023/09/27 03:28:12;;;;;;;16.00;12.77;;;;;;;-148.88;100.00;-17125.47;4992549;28;20049;-73
2023/09/27 03:30:37;;;;;;;14.73;12.50;;;;;;;-148.88;100.00;-17125.47;4992969;28;20463;-73
2023/09/27 03:33:03;;;;;;;14.35;12.85;;;;;;;-148.88;100.00;-17125.47;4992858;28;20128;-73
2023/09/27 03:35:28;;;;;;;14.80;12.93;;;;;;;-148.88;100.00;-17125.47;4992760;28;20371;-73
2023/09/27 03:37:56;;;;;;;14.45;12.63;;;;;;;-148.88;100.00;-17125.47;4992905;28;20309;-74
2023/09/27 03:40:22;;;;;;;13.90;12.55;;;;;;;-148.88;100.00;-17125.47;4993762;28;20030;-73
2023/09/27 03:42:48;;;;;;;15.70;12.48;;;;;;;-148.88;100.00;-17125.47;4992961;28;20024;-74
2023/09/27 03:45:14;;;;;;;14.23;12.63;;;;;;;-148.88;100.00;-17125.47;4993098;28;20376;-74
2023/09/27 03:47:42;;;;;;;15.00;13.43;;;;;;;-148.88;100.00;-17125.47;4992701;28;20040;-75
2023/09/27 03:50:08;;;;;;;14.40;12.48;;;;;;;-148.88;100.00;-17125.47;4991314;28;20026;-74
2023/09/27 03:52:34;;;;;;;13.73;12.32;;;;;;;-148.88;100.00;-17125.47;4992830;28;20045;-74
2023/09/27 03:55:00;;;;;;;15.25;13.50;;;;;;;-148.88;100.00;-17125.47;4992927;28;20026;-73
2023/09/27 03:57:25;;;;;;;16.60;14.05;;;;;;;-148.88;100.00;-17125.47;4991788;28;20495;-75
2023/09/27 03:59:51;;;;;;;14.95;13.43;;;;;;;-148.88;100.00;-17125.47;4992751;28;20019;-73
2023/09/27 04:02:16;;;;;;;15.63;12.95;;;;;;;-148.88;100.00;-17125.47;4992842;28;20073;-73
2023/09/27 04:04:42;;;;;;;14.80;12.65;;;;;;;-148.88;100.00;-17125.47;4992956;28;20101;-73
2023/09/27 04:07:07;;;;;;;14.05;12.57;;;;;;;-148.88;100.00;-17125.47;4992831;28;20353;-73
2023/09/27 04:09:33;;;;;;;14.40;12.45;;;;;;;-148.88;100.00;-17125.47;4992850;28;20046;-73
2023/09/27 04:11:58;;;;;;;14.88;12.32;;;;;;;-148.88;100.00;-17125.47;4992604;28;20048;-73
2023/09/27 04:14:23;;;;;;;13.43;12.13;;;;;;;-148.88;100.00;-17125.47;4992578;28;20129;-73
2023/09/27 04:16:49;;;;;;;13.65;12.15;;;;;;;-148.88;100.00;-17125.47;4992513;28;20018;-74
2023/09/27 04:19:14;;;;;;;13.65;12.25;;;;;;;-148.88;100.00;-17125.47;4992569;28;20022;-74
2023/09/27 04:21:39;;;;;;;13.48;12.10;;;;;;;-148.88;100.00;-17125.47;4992650;28;20030;-74
2023/09/27 04:24:06;;;;;;;14.63;12.68;;;;;;;-148.88;100.00;-17125.47;4992828;28;20019;-73
2023/09/27 04:26:32;;;;;;;14.15;12.02;;;;;;;-148.88;100.00;-17125.47;4992742;28;20019;-73
2023/09/27 04:28:59;;;;;;;13.68;12.02;;;;;;;-148.88;100.00;-17125.47;4997013;28;20026;-74
2023/09/27 04:31:25;;;;;;;16.92;12.68;;;;;;;-148.88;100.00;-17125.47;4996351;28;20030;-74
2023/09/27 04:33:50;;;;;;;13.95;12.55;;;;;;;-148.88;100.00;-17125.47;4996444;28;20402;-74
2023/09/27 04:36:17;;;;;;;14.15;12.38;;;;;;;-148.88;100.00;-17125.47;4996447;28;20022;-74
2023/09/27 04:38:46;;;;;;;15.35;12.90;;;;;;;-148.88;100.00;-17125.47;4996292;28;20026;-74
2023/09/27 04:41:16;;;;;;;13.52;11.52;;;;;;;-148.88;100.00;-17125.47;4996368;28;20422;-74
2023/09/27 04:43:44;;;;;;;13.10;11.75;;;;;;;-148.88;100.00;-17125.47;4996179;28;20033;-75
2023/09/27 04:46:17;;;;;;;13.40;11.70;;;;;;;-148.88;100.00;-17125.47;4996022;28;20501;-73
2023/09/27 04:48:44;;;;;;;14.32;11.68;;;;;;;-148.88;100.00;-17125.47;4995847;28;20117;-73
2023/09/27 04:51:09;;;;;;;14.23;12.27;;;;;;;-148.88;100.00;-17125.47;4995943;28;20434;-73
2023/09/27 04:53:37;;;;;;;13.13;11.73;;;;;;;-148.88;100.00;-17125.47;4995838;28;20109;-73
2023/09/27 04:56:07;;;;;;;13.02;11.80;;;;;;;-148.88;100.00;-17125.47;4995872;28;20022;-73
2023/09/27 04:58:33;;;;;;;13.77;11.77;;;;;;;-148.88;100.00;-17125.47;4995693;28;20034;-73
2023/09/27 05:00:58;;;;;;;14.95;12.32;;;;;;;-148.88;100.00;-17125.47;4995829;28;20018;-74
2023/09/27 05:03:24;;;;;;;13.25;11.95;;;;;;;-148.88;100.00;-17125.47;4995746;28;20513;-74
2023/09/27 05:05:49;;;;;;;12.32;11.13;;;;;;;-148.88;100.00;-17125.47;4995552;28;20084;-73
2023/09/27 05:08:15;;;;;;;12.95;11.65;;;;;;;-148.88;100.00;-17125.47;4995776;28;20022;-73
2023/09/27 05:10:40;;;;;;;13.90;11.95;;;;;;;-148.88;100.00;-17125.47;4995519;28;20084;-73
2023/09/27 05:13:06;;;;;;;13.20;11.80;;;;;;;-148.88;100.00;-17125.47;4995430;28;20033;-73
2023/09/27 05:15:34;;;;;;;14.70;12.45;;;;;;;-148.88;100.00;-17125.47;4995579;28;20018;-74
2023/09/27 05:18:00;;;;;;;14.88;12.73;;;;;;;-148.88;100.00;-17125.47;4995717;28;20022;-73
2023/09/27 05:20:25;;;;;;;14.38;12.55;;;;;;;-148.88;100.00;-17125.47;4995520;28;20112;-73
2023/09/27 05:22:53;;;;;;;14.52;12.40;;;;;;;-148.88;100.00;-17125.47;4995481;28;20029;-74
2023/09/27 05:25:19;;;;;;;15.88;13.35;;;;;;;-148.88;100.00;-17125.47;4994303;28;20174;-74
2023/09/27 05:27:45;;;;;;;16.05;13.13;;;;;;;-148.88;100.00;-17125.47;4995507;28;20121;-74
2023/09/27 05:30:11;;;;;;;14.05;12.60;;;;;;;-148.88;100.00;-17125.47;4995277;28;20027;-74
2023/09/27 05:32:37;;;;;;;15.90;13.45;;;;;;;-148.88;100.00;-17125.47;4995488;28;20102;-73
2023/09/27 05:35:04;;;;;;;14.73;13.13;;;;;;;-148.88;100.00;-17125.47;4994090;28;20134;-74
2023/09/27 05:37:33;;;;;;;14.93;13.00;;;;;;;-148.88;100.00;-17125.47;4994036;28;20037;-75
2023/09/27 05:39:58;;;;;;;14.80;12.75;;;;;;;-148.88;100.00;-17125.47;4994201;28;20018;-74
2023/09/27 05:42:24;;;;;;;15.45;13.43;;;;;;;-148.88;100.00;-17125.47;4995079;28;20041;-74
2023/09/27 05:44:50;;;;;;;15.43;13.82;;;;;;;-148.88;100.00;-17125.47;4992702;28;20026;-75
2023/09/27 05:47:16;;;;;;;16.92;14.05;;;;;;;-148.88;100.00;-17125.47;5029460;23;20032;-81
2023/09/27 05:49:42;;;;;;;15.48;13.75;;;;;;;-148.88;100.00;-17125.47;5034682;28;20041;-85
2023/09/27 05:52:12;;;;;;;17.17;14.20;;;;;;;-148.88;100.00;-17125.47;5035085;28;20032;-82
2023/09/27 05:54:39;;;;;;;15.05;13.48;;;;;;;-148.88;100.00;-17125.47;5033975;28;20504;-83
2023/09/27 05:57:06;;;;;;;16.75;13.13;;;;;;;-148.88;100.00;-17125.47;5034511;28;20026;-83
2023/09/27 05:59:32;;;;;;;15.13;13.52;;;;;;;-148.88;100.00;-17125.47;5034061;28;20481;-83
2023/09/27 06:01:58;;;;;;;14.90;13.40;;;;;;;-148.88;100.00;-17125.47;5052390;23;20045;-75
2023/09/27 06:04:24;;;;;;;16.02;14.32;;;;;;;-148.88;100.00;-17125.47;5034448;28;20029;-76
2023/09/27 06:06:50;;;;;;;15.40;13.40;;;;;;;-148.88;100.00;-17125.47;5034411;28;20022;-76
2023/09/27 06:09:16;;;;;;;16.15;14.35;;;;;;;-148.88;100.00;-17125.47;5033009;28;20030;-76
2023/09/27 06:11:42;;;;;;;18.23;13.02;;;;;;;-148.88;100.00;-17125.47;5034771;28;20054;-76
2023/09/27 06:14:10;;;;;;;14.93;13.40;;;;;;;-148.88;100.00;-17125.47;5034476;28;20029;-76
2023/09/27 06:16:39;;;;;;;16.67;14.20;;;;;;;-148.88;100.00;-17125.47;5033535;28;20060;-76
2023/09/27 06:19:04;;;;;;;17.23;15.32;;;;;;;-148.88;100.00;-17125.47;5034403;28;20116;-76
2023/09/27 06:21:30;;;;;;;18.02;15.13;;;;;;;-148.88;100.00;-17125.47;5034711;28;20108;-76
2023/09/27 06:23:55;;;;;;;19.35;14.70;;;;;;;-148.88;100.00;-17125.47;5033986;28;20029;-76
2023/09/27 06:26:21;;;;;;;16.30;14.55;;;;;;;-148.88;100.00;-17125.47;5034360;28;20030;-76
2023/09/27 06:28:46;;;;;;;17.42;15.38;;;;;;;-148.88;100.00;-17125.47;5033740;28;20144;-76
2023/09/27 06:31:13;;;;;;;18.33;16.40;;;;;;;-148.88;100.00;-17125.47;5033280;28;20024;-77
2023/09/27 06:33:39;;;;;;;18.08;15.25;;;;;;;-148.88;100.00;-17125.47;5034576;28;20025;-78
2023/09/27 06:36:08;;;;;;;17.52;15.52;;;;;;;-148.88;100.00;-17125.47;5036761;28;20056;-78
2023/09/27 06:38:34;;;;;;;17.02;15.23;;;;;;;-148.88;100.00;-17125.47;5037614;28;20013;-78
2023/09/27 06:41:00;;;;;;;17.77;15.88;;;;;;;-148.88;100.00;-17125.47;5037621;28;20072;-78
2023/09/27 06:43:28;;;;;;;21.20;16.70;;;;;;;-148.88;100.00;-17125.47;5039172;28;20079;-78
2023/09/27 06:45:54;;;;;;;20.35;15.85;;;;;;;-148.88;100.00;-17125.47;5038806;28;20410;-78
2023/09/27 06:48:20;;;;;;;18.27;15.70;;;;;;;-148.88;100.00;-17125.47;5037997;28;20029;-78
2023/09/27 06:50:47;;;;;;;23.15;17.25;;;;;;;-148.88;100.00;-17125.47;5039947;28;20085;-79
2023/09/27 06:53:13;;;;;;;22.52;17.42;;;;;;;-148.88;100.00;-17125.47;5039180;28;20445;-79
2023/09/27 06:55:39;;;;;;;20.50;17.75;;;;;;;-148.88;100.00;-17125.47;5036786;28;20025;-78
2023/09/27 06:58:04;;;;;;;20.60;17.25;;;;;;;-148.88;100.00;-17125.47;5033609;28;20021;-78
2023/09/27 07:00:30;;;;;;;19.77;17.00;;;;;;;-148.88;100.00;-17125.47;5035026;28;20061;-78
2023/09/27 07:02:55;;;;;;;19.88;17.52;;;;;;;-148.88;100.00;-17125.47;5034336;28;20025;-78
2023/09/27 07:05:21;;;;;;;20.83;17.85;;;;;;;-148.88;100.00;-17125.47;5034500;28;20017;-78
2023/09/27 07:07:54;;;;;;;19.10;16.95;;;;;;;-148.88;100.00;-17125.47;5035398;28;20394;-78
2023/09/27 07:10:20;;;;;;;19.85;17.02;;;;;;;-148.88;100.00;-17125.47;5035710;28;20108;-78
2023/09/27 07:12:46;;;;;;;19.83;16.42;;;;;;;-148.88;100.00;-17125.47;5037648;28;20060;-78
2023/09/27 07:15:13;;;;;;;21.60;17.52;;;;;;;-148.88;100.00;-17125.47;5038312;28;20108;-78
2023/09/27 07:17:39;;;;;;;21.30;17.08;;;;;;;-148.88;100.00;-17125.47;5037259;28;20017;-78
2023/09/27 07:20:24;;;;;;;19.83;16.13;;;;;;;-148.88;100.00;-17125.47;5038419;28;20398;-78
2023/09/27 07:22:50;;;;;;;19.92;16.70;;;;;;;-148.88;100.00;-17125.47;5037536;28;20112;-79
2023/09/27 07:25:18;;;;;;;18.95;16.50;;;;;;;-148.88;100.00;-17125.47;5038277;28;20032;-78
2023/09/27 07:27:46;;;;;;;20.33;16.05;;;;;;;-148.88;100.00;-17125.47;5037841;28;20113;-78
2023/09/27 07:30:11;;;;;;;18.63;16.58;;;;;;;-148.88;100.00;-17125.47;5038917;28;20029;-79
2023/09/27 07:32:39;;;;;;;19.83;16.88;;;;;;;-148.88;100.00;-17125.47;5036331;28;20081;-78
2023/09/27 07:35:09;;;;;;;18.88;16.50;;;;;;;-148.88;100.00;-17125.47;5034633;28;20036;-78
2023/09/27 07:37:36;;;;;;;18.33;15.93;;;;;;;-148.88;100.00;-17125.47;5035174;28;20097;-78
2023/09/27 07:40:10;;;;;;;21.42;17.48;;;;;;;-148.88;100.00;-17125.47;5033910;28;20122;-78
2023/09/27 07:42:36;;;;;;;19.88;16.95;;;;;;;-148.88;100.00;-17125.47;5034176;28;20444;-78
2023/09/27 07:45:03;;;;;;;18.42;16.50;;;;;;;-148.88;100.00;-17125.47;5035271;28;20029;-78
2023/09/27 07:47:29;;;;;;;18.55;16.63;;;;;;;-148.88;100.00;-17125.47;5034558;28;20027;-78
2023/09/27 07:49:54;;;;;;;19.40;16.98;;;;;;;-148.88;100.00;-17125.47;5036424;28;20022;-79
2023/09/27 07:52:20;;;;;;;18.58;16.58;;;;;;;-148.88;100.00;-17125.47;5037271;28;20040;-78
2023/09/27 07:54:46;;;;;;;20.35;17.13;;;;;;;-148.88;100.00;-17125.47;5036859;28;20021;-78
2023/09/27 07:57:12;;;;;;;17.70;15.80;;;;;;;-148.88;100.00;-17125.47;5037352;28;20107;-78
2023/09/27 07:59:37;;;;;;;18.23;16.05;;;;;;;-148.88;100.00;-17125.47;5037198;28;20035;-78
2023/09/27 08:02:02;;;;;;;18.02;16.17;;;;;;;-148.88;100.00;-17125.47;5035676;28;20025;-78
2023/09/27 08:04:28;;;;;;;18.75;16.75;;;;;;;-148.88;100.00;-17125.47;5036814;28;20025;-79
2023/09/27 08:06:54;;;;;;;17.58;15.70;;;;;;;-148.88;100.00;-17125.47;5037456;28;20048;-77
2023/09/27 08:09:22;;;;;;;18.35;16.27;;;;;;;-148.88;100.00;-17125.47;5033434;28;20513;-78
2023/09/27 08:11:47;;;;;;;17.65;15.80;;;;;;;-148.88;100.00;-17125.47;5033153;28;20025;-78
2023/09/27 08:14:15;;;;;;;19.52;15.90;;;;;;;-148.88;100.00;-17125.47;5034755;28;20080;-78
2023/09/27 08:16:41;;;;;;;17.98;16.10;;;;;;;-148.88;100.00;-17125.47;5033850;28;20101;-78
2023/09/27 08:19:06;;;;;;;17.95;15.10;;;;;;;-148.88;100.00;-17125.47;5034621;28;20048;-78
2023/09/27 08:21:32;;;;;;;21.13;14.93;;;;;;;-148.88;100.00;-17125.47;5034682;28;20021;-78
2023/09/27 08:23:57;;;;;;;17.05;15.25;;;;;;;-148.88;100.00;-17125.47;5034779;28;20394;-78
2023/09/27 08:26:23;;;;;;;17.42;14.68;;;;;;;-148.88;100.00;-17125.47;5036195;28;20021;-78
2023/09/27 08:28:48;;;;;;;15.85;14.25;;;;;;;-148.88;100.00;-17125.47;5035053;28;20029;-78
2023/09/27 08:31:13;;;;;;;17.02;14.55;;;;;;;-148.88;100.00;-17125.47;5037949;28;20033;-78
2023/09/27 08:33:39;;;;;;;17.63;14.68;;;;;;;-148.88;100.00;-17125.47;5036421;28;20029;-79
2023/09/27 08:36:04;;;;;;;15.77;14.07;;;;;;;-148.88;100.00;-17125.47;5036860;28;20030;-78
2023/09/27 08:38:30;;;;;;;16.65;14.40;;;;;;;-148.88;100.00;-17125.47;5039818;28;20075;-79
2023/09/27 08:40:55;;;;;;;16.75;13.40;;;;;;;-148.88;100.00;-17125.47;5038933;28;20017;-78
2023/09/27 08:43:22;;;;;;;15.55;13.75;;;;;;;-148.88;100.00;-17125.47;5037694;28;20057;-79
2023/09/27 08:45:51;;;;;;;16.95;13.77;;;;;;;-148.88;100.00;-17125.47;5036315;28;20477;-78
2023/09/27 08:48:22;;;;;;;14.15;12.63;;;;;;;-148.88;100.00;-17125.47;5033955;28;20116;-78
2023/09/27 08:50:51;;;;;;;17.85;12.90;;;;;;;-148.88;100.00;-17125.47;5033309;28;20055;-78
2023/09/27 08:53:16;;;;;;;14.32;12.23;;;;;;;-148.88;100.00;-17125.47;5033072;28;20077;-78
2023/09/27 08:55:47;;;;;;;12.73;11.40;;;;;;;-148.88;100.00;-17125.47;5035030;28;20021;-78
2023/09/27 08:58:14;;;;;;;18.15;12.35;;;;;;;-148.88;100.00;-17125.47;5033567;28;20047;-78
2023/09/27 09:00:41;;;;;;;11.80;10.57;;;;;;;-148.88;100.00;-17125.47;5034655;28;20042;-78
2023/09/27 09:03:07;;;;;;;9.90;8.90;;;;;;;-148.88;100.00;-17125.47;5035865;28;20035;-78
2023/09/27 09:05:33;;;;;;;11.82;9.43;;;;;;;-148.88;100.00;-17125.47;5035684;28;20108;-78
2023/09/27 09:08:00;;;;;;;12.20;8.30;;;;;;;-148.88;100.00;-17125.47;5037265;28;20041;-78
2023/09/27 09:10:27;;;;;;;9.23;7.95;;;;;;;-148.88;100.00;-17125.47;5037157;28;20032;-79
2023/09/27 09:12:52;;;;;;;9.40;7.10;;;;;;;-148.88;100.00;-17125.47;5037629;28;20021;-81
2023/09/27 09:15:48;;;;;;;8.77;7.82;;;;;;;-148.88;100.00;-17125.47;5042517;28;20371;-79
2023/09/27 09:18:28;;;;;;;8.75;6.97;;;;;;;-148.88;100.00;-17125.47;5041791;28;20040;-79
2023/09/27 09:20:57;;;;;;;7.70;6.78;;;;;;;-148.88;100.00;-17125.47;5041652;28;20030;-79
2023/09/27 09:23:33;;;;;;;8.18;7.28;;;;;;;-148.88;100.00;-17125.47;5038262;28;20423;-79
2023/09/27 09:26:00;;;;;;;10.32;6.60;;;;;;;-148.88;100.00;-17125.47;5035720;28;20018;-79
2023/09/27 09:28:26;;;;;;;11.88;7.03;;;;;;;-148.88;100.00;-17125.47;5037100;28;20075;-79
2023/09/27 09:30:51;;;;;;;8.52;6.18;;;;;;;-148.88;100.00;-17125.47;5037213;28;20029;-79
2023/09/27 09:33:19;;;;;;;7.75;6.40;;;;;;;-148.88;100.00;-17125.47;5035953;28;20021;-79
2023/09/27 09:35:46;;;;;;;8.60;6.72;;;;;;;-148.88;100.00;-17125.47;5036112;28;20527;-79
2023/09/27 09:38:12;;;;;;;8.35;6.30;;;;;;;-148.88;100.00;-17125.47;5035614;28;20022;-79
2023/09/27 09:41:01;;;;;;;7.03;6.32;;;;;;;-148.88;100.00;-17125.47;5038329;28;20026;-79
2023/09/27 09:43:31;;;;;;;8.50;5.75;;;;;;;-148.88;100.00;-17125.47;5040368;28;20030;-79
2023/09/27 09:45:56;;;;;;;9.10;6.50;;;;;;;-148.88;100.00;-17125.47;5039027;28;20029;-79
2023/09/27 09:48:23;;;;;;;7.32;6.00;;;;;;;-148.88;100.00;-17125.47;5040784;28;20032;-79
2023/09/27 09:50:49;;;;;;;7.55;5.88;;;;;;;-148.88;100.00;-17125.47;5039448;28;20033;-79
2023/09/27 09:53:16;;;;;;;8.18;6.25;;;;;;;-148.88;100.00;-17125.47;5039811;28;20029;-79
2023/09/27 09:55:43;;;;;;;6.97;6.00;;;;;;;-148.88;100.00;-17125.47;5039833;28;20029;-79
2023/09/27 09:58:25;;;;;;;7.13;5.63;;;;;;;-148.88;100.00;-17125.47;5038120;28;20478;-79
2023/09/27 10:00:54;;;;;;;7.43;6.05;;;;;;;-148.88;100.00;-17125.47;5037952;28;20366;-79
2023/09/27 10:03:30;;;;;;;7.68;5.90;;;;;;;-148.88;100.00;-17125.47;5034839;28;20072;-79
2023/09/27 10:05:56;;;;;;;7.47;5.43;;;;;;;-148.88;100.00;-17125.47;5035587;28;20075;-79
2023/09/27 10:08:23;;;;;;;8.27;5.45;;;;;;;-148.88;100.00;-17125.47;5035003;28;20474;-79
2023/09/27 10:10:48;;;;;;;7.00;5.30;;;;;;;-148.88;100.00;-17125.47;5036571;28;20037;-79
2023/09/27 10:13:14;;;;;;;7.40;5.45;;;;;;;-148.88;100.00;-17125.47;5036800;28;20029;-79
2023/09/27 10:15:42;;;;;;;7.68;6.03;;;;;;;-148.88;100.00;-17125.47;5037162;28;20096;-79
2023/09/27 10:18:22;;;;;;;7.82;5.85;;;;;;;-148.88;100.00;-17125.47;5037924;28;20021;-79
2023/09/27 10:21:19;;;;;;;6.47;5.05;;;;;;;-148.88;100.00;-17125.47;5039446;28;20033;-79
2023/09/27 10:23:45;;;;;;;5.65;5.05;;;;;;;-148.88;100.00;-17125.47;5041326;28;20025;-79
2023/09/27 10:26:31;;;;;;;7.32;5.35;;;;;;;-148.88;95.84;-17125.47;5039592;28;20139;-79
2023/09/27 10:29:03;;;;;;;7.72;5.45;;;;;;;-148.88;94.03;-17125.47;5041230;28;20393;-79
2023/09/27 10:31:33;;;;;;;8.68;5.13;;;;;;;-148.88;92.95;-17125.47;5041118;28;20048;-79
2023/09/27 10:33:59;;;;;;;6.20;4.90;;;;;;;-148.88;92.14;-17125.47;5040995;28;20017;-79
2023/09/27 10:36:24;;;;;;;6.93;4.68;;;;;;;-148.88;90.41;-17125.47;5036286;28;20208;-78
2023/09/27 10:38:49;;;;;;;6.78;4.60;;;;;;;-148.88;89.07;-17125.47;5035486;28;20029;-81
2023/09/27 10:41:34;;;;;;;5.85;4.60;;;;;;;-148.88;91.34;-17125.47;5036515;28;20025;-81
2023/09/27 10:44:00;;;;;;;5.95;4.40;;;;;;;-148.88;89.20;-17125.47;5034008;28;20025;-77
2023/09/27 10:46:26;;;;;;;6.53;4.72;;;;;;;-148.88;88.38;-17125.47;5035212;28;20025;-79
2023/09/27 10:48:55;;;;;;;10.98;4.95;;;;;;;-148.88;88.25;-17125.47;5035748;28;20036;-79
2023/09/27 10:51:26;;;;;;;7.70;4.90;;;;;;;-148.88;88.27;-17125.47;5035937;28;20036;-79